sensor_id;sensor_type;location;lat;lon;timestamp;pressure;altitude;pressure_sealevel;temperature;humidity
16016;BME280;8112;53.592;10.184;2022-11-20T00:04:29;100853.91;;;1.71;100.00
16016;BME280;8112;53.592;10.184;2022-11-20T00:09:30;100854.78;;;1.70;100.00
16016;BME280;8112;53.592;10.184;2022-11-20T00:14:32;100856.56;;;1.68;100.00
16016;BME280;8112;53.592;10.184;2022-11-20T00:19:35;100853.06;;;1.71;100.00
16016;BME280;8112;53.592;10.184;2022-11-20T00:24:37;100856.47;;;1.73;100.00
16016;BME280;8112;53.592;10.184;2022-11-20T00:29:39;100847.94;;;1.68;100.00
16016;BME280;8112;53.592;10.184;2022-11-20T00:34:42;100851.22;;;1.76;100.00
16016;BME280;8112;53.592;10.184;2022-11-20T00:39:43;100846.06;;;1.75;100.00
16016;BME280;8112;53.592;10.184;2022-11-20T00:44:45;100845.03;;;1.83;100.00
16016;BME280;8112;53.592;10.184;2022-11-20T00:49:48;100846.00;;;1.76;100.00
16016;BME280;8112;53.592;10.184;2022-11-20T00:54:50;100847.84;;;1.71;100.00
16016;BME280;8112;53.592;10.184;2022-11-20T00:59:52;100841.03;;;1.65;100.00
16016;BME280;8112;53.592;10.184;2022-11-20T01:04:55;100841.13;;;1.61;100.00
16016;BME280;8112;53.592;10.184;2022-11-20T01:09:56;100845.56;;;1.55;100.00
16016;BME280;8112;53.592;10.184;2022-11-20T01:14:58;100832.66;;;1.52;100.00
16016;BME280;8112;53.592;10.184;2022-11-20T01:20:02;100842.16;;;1.52;100.00
16016;BME280;8112;53.592;10.184;2022-11-20T01:25:04;100828.25;;;1.56;100.00
16016;BME280;8112;53.592;10.184;2022-11-20T01:30:07;100822.16;;;1.57;100.00
16016;BME280;8112;53.592;10.184;2022-11-20T01:35:10;100823.06;;;1.56;100.00
16016;BME280;8112;53.592;10.184;2022-11-20T01:40:12;100803.19;;;1.52;100.00
16016;BME280;8112;53.592;10.184;2022-11-20T01:50:55;100797.09;;;1.54;100.00
16016;BME280;8112;53.592;10.184;2022-11-20T01:56:00;100803.31;;;1.47;100.00
16016;BME280;8112;53.592;10.184;2022-11-20T02:01:04;100800.53;;;1.55;100.00
16016;BME280;8112;53.592;10.184;2022-11-20T02:06:12;100792.72;;;1.56;100.00
16016;BME280;8112;53.592;10.184;2022-11-20T02:11:16;100788.41;;;1.55;100.00
16016;BME280;8112;53.592;10.184;2022-11-20T02:16:21;100784.19;;;1.51;100.00
16016;BME280;8112;53.592;10.184;2022-11-20T02:21:29;100781.69;;;1.45;100.00
16016;BME280;8112;53.592;10.184;2022-11-20T02:26:37;100789.41;;;1.50;100.00
16016;BME280;8112;53.592;10.184;2022-11-20T02:31:41;100776.38;;;1.51;100.00
16016;BME280;8112;53.592;10.184;2022-11-20T02:36:44;100779.28;;;1.37;100.00
16016;BME280;8112;53.592;10.184;2022-11-20T02:41:48;100774.09;;;1.36;100.00
16016;BME280;8112;53.592;10.184;2022-11-20T02:46:50;100767.06;;;1.41;100.00
16016;BME280;8112;53.592;10.184;2022-11-20T02:51:51;100767.03;;;1.42;100.00
16016;BME280;8112;53.592;10.184;2022-11-20T02:56:55;100768.09;;;1.32;100.00
16016;BME280;8112;53.592;10.184;2022-11-20T03:01:56;100755.91;;;1.37;100.00
16016;BME280;8112;53.592;10.184;2022-11-20T03:06:58;100754.22;;;1.33;100.00
16016;BME280;8112;53.592;10.184;2022-11-20T03:12:01;100756.13;;;1.25;100.00
16016;BME280;8112;53.592;10.184;2022-11-20T03:17:03;100757.69;;;1.34;100.00
16016;BME280;8112;53.592;10.184;2022-11-20T03:22:05;100758.50;;;1.37;100.00
16016;BME280;8112;53.592;10.184;2022-11-20T03:27:08;100755.06;;;1.35;100.00
16016;BME280;8112;53.592;10.184;2022-11-20T03:32:10;100759.41;;;1.35;100.00
16016;BME280;8112;53.592;10.184;2022-11-20T03:37:11;100750.59;;;1.42;100.00
16016;BME280;8112;53.592;10.184;2022-11-20T03:42:15;100750.72;;;1.37;100.00
16016;BME280;8112;53.592;10.184;2022-11-20T03:47:30;100744.72;;;1.34;100.00
16016;BME280;8112;53.592;10.184;2022-11-20T03:52:32;100741.09;;;1.41;100.00
16016;BME280;8112;53.592;10.184;2022-11-20T03:57:36;100726.63;;;1.29;100.00
16016;BME280;8112;53.592;10.184;2022-11-20T04:02:37;100739.53;;;1.34;100.00
16016;BME280;8112;53.592;10.184;2022-11-20T04:07:39;100730.84;;;1.35;100.00
16016;BME280;8112;53.592;10.184;2022-11-20T04:12:42;100734.25;;;1.37;100.00
16016;BME280;8112;53.592;10.184;2022-11-20T04:17:44;100730.91;;;1.32;100.00
16016;BME280;8112;53.592;10.184;2022-11-20T04:22:46;100726.50;;;1.35;100.00
16016;BME280;8112;53.592;10.184;2022-11-20T04:27:49;100731.66;;;1.37;100.00
16016;BME280;8112;53.592;10.184;2022-11-20T04:32:51;100725.44;;;1.44;100.00
16016;BME280;8112;53.592;10.184;2022-11-20T04:37:53;100721.38;;;1.32;100.00
16016;BME280;8112;53.592;10.184;2022-11-20T04:42:56;100718.69;;;1.37;100.00
16016;BME280;8112;53.592;10.184;2022-11-20T04:47:58;100717.00;;;1.34;100.00
16016;BME280;8112;53.592;10.184;2022-11-20T04:53:00;100712.75;;;1.30;100.00
16016;BME280;8112;53.592;10.184;2022-11-20T04:58:03;100714.63;;;1.23;100.00
16016;BME280;8112;53.592;10.184;2022-11-20T05:03:05;100706.72;;;1.30;100.00
16016;BME280;8112;53.592;10.184;2022-11-20T05:08:07;100697.38;;;1.21;100.00
16016;BME280;8112;53.592;10.184;2022-11-20T05:13:10;100692.06;;;1.27;100.00
16016;BME280;8112;53.592;10.184;2022-11-20T05:18:12;100693.91;;;1.22;100.00
16016;BME280;8112;53.592;10.184;2022-11-20T05:23:13;100685.25;;;1.21;100.00
16016;BME280;8112;53.592;10.184;2022-11-20T05:28:16;100673.22;;;1.17;100.00
16016;BME280;8112;53.592;10.184;2022-11-20T05:33:18;100668.84;;;1.19;100.00
16016;BME280;8112;53.592;10.184;2022-11-20T05:38:20;100677.38;;;1.24;100.00
16016;BME280;8112;53.592;10.184;2022-11-20T05:43:24;100670.38;;;1.30;100.00
16016;BME280;8112;53.592;10.184;2022-11-20T05:48:25;100667.72;;;1.31;100.00
16016;BME280;8112;53.592;10.184;2022-11-20T05:53:27;100667.94;;;1.22;100.00
16016;BME280;8112;53.592;10.184;2022-11-20T05:58:31;100661.06;;;1.19;100.00
16016;BME280;8112;53.592;10.184;2022-11-20T06:03:33;100657.66;;;1.16;100.00
16016;BME280;8112;53.592;10.184;2022-11-20T06:08:35;100658.53;;;1.16;100.00
16016;BME280;8112;53.592;10.184;2022-11-20T06:13:39;100664.63;;;1.13;100.00
16016;BME280;8112;53.592;10.184;2022-11-20T06:18:41;100674.06;;;1.18;100.00
16016;BME280;8112;53.592;10.184;2022-11-20T06:23:43;100676.66;;;1.18;100.00
16016;BME280;8112;53.592;10.184;2022-11-20T06:28:46;100670.75;;;1.11;100.00
16016;BME280;8112;53.592;10.184;2022-11-20T06:33:48;100678.44;;;1.16;100.00
16016;BME280;8112;53.592;10.184;2022-11-20T06:38:50;100673.16;;;1.19;100.00
16016;BME280;8112;53.592;10.184;2022-11-20T06:43:53;100669.75;;;1.18;100.00
16016;BME280;8112;53.592;10.184;2022-11-20T06:48:55;100661.28;;;1.10;100.00
16016;BME280;8112;53.592;10.184;2022-11-20T06:53:58;100662.13;;;1.09;100.00
16016;BME280;8112;53.592;10.184;2022-11-20T06:59:05;100660.41;;;1.08;100.00
16016;BME280;8112;53.592;10.184;2022-11-20T07:04:09;100660.56;;;1.02;100.00
16016;BME280;8112;53.592;10.184;2022-11-20T07:09:11;100661.28;;;1.10;100.00
16016;BME280;8112;53.592;10.184;2022-11-20T07:14:14;100663.88;;;1.10;100.00
16016;BME280;8112;53.592;10.184;2022-11-20T07:19:16;100661.28;;;1.10;100.00
16016;BME280;8112;53.592;10.184;2022-11-20T07:24:18;100675.84;;;1.16;100.00
16016;BME280;8112;53.592;10.184;2022-11-20T07:29:22;100674.19;;;1.13;100.00
16016;BME280;8112;53.592;10.184;2022-11-20T07:34:23;100667.97;;;1.20;100.00
16016;BME280;8112;53.592;10.184;2022-11-20T07:39:25;100665.44;;;1.17;100.00
16016;BME280;8112;53.592;10.184;2022-11-20T07:44:29;100661.03;;;1.21;100.00
16016;BME280;8112;53.592;10.184;2022-11-20T07:49:30;100661.94;;;1.18;100.00
16016;BME280;8112;53.592;10.184;2022-11-20T07:54:35;100655.19;;;1.11;100.00
16016;BME280;8112;53.592;10.184;2022-11-20T07:59:39;100660.19;;;1.20;100.00
16016;BME280;8112;53.592;10.184;2022-11-20T08:04:41;100655.41;;;1.41;100.00
16016;BME280;8112;53.592;10.184;2022-11-20T08:09:43;100653.44;;;1.51;100.00
16016;BME280;8112;53.592;10.184;2022-11-20T08:14:46;100654.72;;;1.72;100.00
16016;BME280;8112;53.592;10.184;2022-11-20T08:19:48;100657.22;;;1.75;100.00
16016;BME280;8112;53.592;10.184;2022-11-20T08:24:56;100656.59;;;1.65;100.00
16016;BME280;8112;53.592;10.184;2022-11-20T08:29:59;100648.47;;;1.79;100.00
16016;BME280;8112;53.592;10.184;2022-11-20T08:35:01;100656.88;;;1.91;100.00
16016;BME280;8112;53.592;10.184;2022-11-20T08:40:03;100661.34;;;1.84;100.00
16016;BME280;8112;53.592;10.184;2022-11-20T08:45:08;100664.06;;;1.79;100.00
16016;BME280;8112;53.592;10.184;2022-11-20T08:50:10;100658.03;;;1.77;100.00
16016;BME280;8112;53.592;10.184;2022-11-20T08:55:12;100659.25;;;1.62;100.00
16016;BME280;8112;53.592;10.184;2022-11-20T09:00:16;100664.41;;;1.64;100.00
16016;BME280;8112;53.592;10.184;2022-11-20T09:05:18;100665.91;;;1.74;100.00
16016;BME280;8112;53.592;10.184;2022-11-20T09:10:20;100656.91;;;1.89;100.00
16016;BME280;8112;53.592;10.184;2022-11-20T09:15:24;100657.56;;;1.97;100.00
16016;BME280;8112;53.592;10.184;2022-11-20T09:20:28;100658.56;;;1.92;100.00
16016;BME280;8112;53.592;10.184;2022-11-20T09:25:30;100652.06;;;2.10;100.00
16016;BME280;8112;53.592;10.184;2022-11-20T09:30:33;100660.97;;;2.34;100.00
16016;BME280;8112;53.592;10.184;2022-11-20T09:35:35;100664.38;;;2.36;100.00
16016;BME280;8112;53.592;10.184;2022-11-20T09:40:39;100655.16;;;2.24;100.00
16016;BME280;8112;53.592;10.184;2022-11-20T09:45:53;100649.41;;;2.13;100.00
16016;BME280;8112;53.592;10.184;2022-11-20T09:51:05;100654.66;;;2.10;100.00
16016;BME280;8112;53.592;10.184;2022-11-20T09:56:11;100659.28;;;2.33;100.00
16016;BME280;8112;53.592;10.184;2022-11-20T10:01:16;100663.13;;;2.18;100.00
16016;BME280;8112;53.592;10.184;2022-11-20T10:06:30;100665.06;;;2.10;100.00
16016;BME280;8112;53.592;10.184;2022-11-20T10:11:46;100665.72;;;2.20;100.00
16016;BME280;8112;53.592;10.184;2022-11-20T10:16:59;100657.91;;;2.20;100.00
16016;BME280;8112;53.592;10.184;2022-11-20T10:22:10;100653.44;;;2.25;100.00
16016;BME280;8112;53.592;10.184;2022-11-20T10:27:31;100648.16;;;2.61;100.00
16016;BME280;8112;53.592;10.184;2022-11-20T10:32:41;100646.69;;;2.51;100.00
16016;BME280;8112;53.592;10.184;2022-11-20T10:37:47;100648.44;;;2.16;100.00
16016;BME280;8112;53.592;10.184;2022-11-20T10:42:53;100644.00;;;2.54;100.00
16016;BME280;8112;53.592;10.184;2022-11-20T10:48:11;100643.81;;;2.93;100.00
16016;BME280;8112;53.592;10.184;2022-11-20T10:53:23;100633.44;;;2.60;100.00
16016;BME280;8112;53.592;10.184;2022-11-20T10:58:36;100641.47;;;2.51;100.00
16016;BME280;8112;53.592;10.184;2022-11-20T11:03:43;100635.25;;;2.56;100.00
16016;BME280;8112;53.592;10.184;2022-11-20T11:08:46;100636.44;;;2.45;100.00
16016;BME280;8112;53.592;10.184;2022-11-20T11:13:50;100626.03;;;2.45;100.00
16016;BME280;8112;53.592;10.184;2022-11-20T11:19:05;100604.13;;;2.85;100.00
16016;BME280;8112;53.592;10.184;2022-11-20T11:24:20;100606.19;;;3.04;100.00
16016;BME280;8112;53.592;10.184;2022-11-20T11:29:22;100606.03;;;3.92;100.00
16016;BME280;8112;53.592;10.184;2022-11-20T11:34:25;100602.97;;;3.52;100.00
16016;BME280;8112;53.592;10.184;2022-11-20T11:39:28;100600.34;;;2.95;100.00
16016;BME280;8112;53.592;10.184;2022-11-20T11:44:33;100595.31;;;2.89;100.00
16016;BME280;8112;53.592;10.184;2022-11-20T11:55:26;100587.59;;;3.16;100.00
16016;BME280;8112;53.592;10.184;2022-11-20T12:00:28;100601.59;;;2.82;100.00
16016;BME280;8112;53.592;10.184;2022-11-20T12:05:37;100599.72;;;2.57;100.00
16016;BME280;8112;53.592;10.184;2022-11-20T12:10:44;100599.75;;;2.54;100.00
16016;BME280;8112;53.592;10.184;2022-11-20T12:15:48;100594.97;;;3.02;100.00
16016;BME280;8112;53.592;10.184;2022-11-20T12:21:02;100595.84;;;3.31;100.00
16016;BME280;8112;53.592;10.184;2022-11-20T12:26:13;100599.16;;;3.36;100.00
16016;BME280;8112;53.592;10.184;2022-11-20T12:31:30;100585.59;;;3.24;100.00
16016;BME280;8112;53.592;10.184;2022-11-20T12:36:44;100579.13;;;3.08;100.00
16016;BME280;8112;53.592;10.184;2022-11-20T12:42:02;100571.28;;;3.09;100.00
16016;BME280;8112;53.592;10.184;2022-11-20T12:47:28;100568.03;;;3.03;100.00
16016;BME280;8112;53.592;10.184;2022-11-20T12:52:43;100562.63;;;3.09;100.00
16016;BME280;8112;53.592;10.184;2022-11-20T12:57:52;100560.19;;;3.60;100.00
16016;BME280;8112;53.592;10.184;2022-11-20T13:03:32;100551.97;;;3.97;100.00
16016;BME280;8112;53.592;10.184;2022-11-20T13:08:39;100555.38;;;5.19;100.00
16016;BME280;8112;53.592;10.184;2022-11-20T13:13:48;100550.50;;;7.15;100.00
16016;BME280;8112;53.592;10.184;2022-11-20T13:18:54;100548.03;;;6.74;100.00
16016;BME280;8112;53.592;10.184;2022-11-20T13:24:05;100533.84;;;5.56;100.00
16016;BME280;8112;53.592;10.184;2022-11-20T13:29:11;100534.16;;;4.82;100.00
16016;BME280;8112;53.592;10.184;2022-11-20T13:34:22;100531.19;;;4.20;100.00
16016;BME280;8112;53.592;10.184;2022-11-20T13:39:29;100531.50;;;3.87;100.00
16016;BME280;8112;53.592;10.184;2022-11-20T13:44:38;100538.50;;;3.59;100.00
16016;BME280;8112;53.592;10.184;2022-11-20T13:49:40;100535.84;;;3.34;100.00
16016;BME280;8112;53.592;10.184;2022-11-20T13:55:07;100537.00;;;3.23;100.00
16016;BME280;8112;53.592;10.184;2022-11-20T14:00:15;100533.63;;;3.20;100.00
16016;BME280;8112;53.592;10.184;2022-11-20T14:05:20;100518.22;;;3.13;100.00
16016;BME280;8112;53.592;10.184;2022-11-20T14:10:26;100520.94;;;3.10;100.00
16016;BME280;8112;53.592;10.184;2022-11-20T14:15:30;100513.94;;;3.11;100.00
16016;BME280;8112;53.592;10.184;2022-11-20T14:20:32;100513.06;;;3.12;100.00
16016;BME280;8112;53.592;10.184;2022-11-20T14:25:36;100520.25;;;3.04;100.00
16016;BME280;8112;53.592;10.184;2022-11-20T14:30:43;100506.16;;;2.82;100.00
16016;BME280;8112;53.592;10.184;2022-11-20T14:35:46;100501.56;;;2.62;100.00
16016;BME280;8112;53.592;10.184;2022-11-20T14:40:50;100507.34;;;2.42;100.00
16016;BME280;8112;53.592;10.184;2022-11-20T14:45:56;100507.50;;;2.36;100.00
16016;BME280;8112;53.592;10.184;2022-11-20T14:50:58;100501.66;;;2.27;100.00
16016;BME280;8112;53.592;10.184;2022-11-20T14:56:02;100503.38;;;2.28;100.00
16016;BME280;8112;53.592;10.184;2022-11-20T15:01:05;100493.75;;;2.32;100.00
16016;BME280;8112;53.592;10.184;2022-11-20T15:06:11;100490.47;;;2.25;100.00
16016;BME280;8112;53.592;10.184;2022-11-20T15:11:19;100494.44;;;2.37;100.00
16016;BME280;8112;53.592;10.184;2022-11-20T15:16:23;100489.72;;;2.52;100.00
16016;BME280;8112;53.592;10.184;2022-11-20T15:21:27;100486.84;;;2.61;100.00
16016;BME280;8112;53.592;10.184;2022-11-20T15:26:31;100485.81;;;2.67;100.00
16016;BME280;8112;53.592;10.184;2022-11-20T15:31:34;100484.19;;;2.63;100.00
16016;BME280;8112;53.592;10.184;2022-11-20T15:36:36;100478.31;;;2.56;100.00
16016;BME280;8112;53.592;10.184;2022-11-20T15:41:39;100481.44;;;2.67;100.00
16016;BME280;8112;53.592;10.184;2022-11-20T15:46:42;100463.44;;;2.61;100.00
16016;BME280;8112;53.592;10.184;2022-11-20T15:51:47;100470.34;;;2.62;100.00
16016;BME280;8112;53.592;10.184;2022-11-20T15:56:51;100473.94;;;2.58;100.00
16016;BME280;8112;53.592;10.184;2022-11-20T16:01:53;100468.09;;;2.50;100.00
16016;BME280;8112;53.592;10.184;2022-11-20T16:06:55;100462.84;;;2.51;100.00
16016;BME280;8112;53.592;10.184;2022-11-20T16:11:58;100465.47;;;2.51;100.00
16016;BME280;8112;53.592;10.184;2022-11-20T16:17:00;100451.06;;;2.39;100.00
16016;BME280;8112;53.592;10.184;2022-11-20T16:22:03;100458.13;;;2.34;100.00
16016;BME280;8112;53.592;10.184;2022-11-20T16:27:06;100448.69;;;2.32;100.00
16016;BME280;8112;53.592;10.184;2022-11-20T16:32:08;100463.25;;;2.37;100.00
16016;BME280;8112;53.592;10.184;2022-11-20T16:37:10;100449.28;;;2.41;100.00
16016;BME280;8112;53.592;10.184;2022-11-20T16:42:13;100448.28;;;2.46;100.00
16016;BME280;8112;53.592;10.184;2022-11-20T16:47:15;100443.13;;;2.44;100.00
16016;BME280;8112;53.592;10.184;2022-11-20T16:52:17;100435.59;;;2.35;100.00
16016;BME280;8112;53.592;10.184;2022-11-20T16:57:20;100435.63;;;2.33;100.00
16016;BME280;8112;53.592;10.184;2022-11-20T17:02:23;100435.53;;;2.36;100.00
16016;BME280;8112;53.592;10.184;2022-11-20T17:07:25;100430.44;;;2.33;100.00
16016;BME280;8112;53.592;10.184;2022-11-20T17:12:28;100432.22;;;2.31;100.00
16016;BME280;8112;53.592;10.184;2022-11-20T17:17:30;100429.63;;;2.31;100.00
16016;BME280;8112;53.592;10.184;2022-11-20T17:22:32;100428.81;;;2.29;100.00
16016;BME280;8112;53.592;10.184;2022-11-20T17:27:35;100416.81;;;2.25;100.00
16016;BME280;8112;53.592;10.184;2022-11-20T17:32:37;100412.63;;;2.21;100.00
16016;BME280;8112;53.592;10.184;2022-11-20T17:37:44;100411.88;;;2.16;100.00
16016;BME280;8112;53.592;10.184;2022-11-20T17:42:47;100405.06;;;2.11;100.00
16016;BME280;8112;53.592;10.184;2022-11-20T17:47:49;100401.84;;;2.03;100.00
16016;BME280;8112;53.592;10.184;2022-11-20T17:52:51;100410.00;;;1.91;100.00
16016;BME280;8112;53.592;10.184;2022-11-20T17:57:54;100411.09;;;1.82;100.00
16016;BME280;8112;53.592;10.184;2022-11-20T18:03:02;100409.69;;;1.70;100.00
16016;BME280;8112;53.592;10.184;2022-11-20T18:08:04;100400.63;;;1.52;100.00
16016;BME280;8112;53.592;10.184;2022-11-20T18:13:07;100404.63;;;1.32;100.00
16016;BME280;8112;53.592;10.184;2022-11-20T18:18:09;100412.13;;;1.10;100.00
16016;BME280;8112;53.592;10.184;2022-11-20T18:23:10;100409.56;;;1.07;100.00
16016;BME280;8112;53.592;10.184;2022-11-20T18:28:17;100404.34;;;1.10;100.00
16016;BME280;8112;53.592;10.184;2022-11-20T18:33:20;100417.88;;;1.21;100.00
16016;BME280;8112;53.592;10.184;2022-11-20T18:38:22;100397.41;;;1.09;100.00
16016;BME280;8112;53.592;10.184;2022-11-20T18:43:25;100396.72;;;1.02;100.00
16016;BME280;8112;53.592;10.184;2022-11-20T18:48:44;100394.31;;;0.94;100.00
16016;BME280;8112;53.592;10.184;2022-11-20T18:53:46;100385.50;;;1.02;100.00
16016;BME280;8112;53.592;10.184;2022-11-20T18:58:50;100389.41;;;1.18;100.00
16016;BME280;8112;53.592;10.184;2022-11-20T19:03:55;100387.25;;;1.34;100.00
16016;BME280;8112;53.592;10.184;2022-11-20T19:08:56;100388.66;;;1.46;100.00
16016;BME280;8112;53.592;10.184;2022-11-20T19:14:00;100393.50;;;1.60;100.00
16016;BME280;8112;53.592;10.184;2022-11-20T19:19:04;100381.16;;;1.68;100.00
16016;BME280;8112;53.592;10.184;2022-11-20T19:24:06;100376.44;;;1.81;100.00
16016;BME280;8112;53.592;10.184;2022-11-20T19:29:12;100376.41;;;1.84;100.00
16016;BME280;8112;53.592;10.184;2022-11-20T19:34:15;100363.56;;;1.78;100.00
16016;BME280;8112;53.592;10.184;2022-11-20T19:39:17;100355.50;;;1.88;100.00
16016;BME280;8112;53.592;10.184;2022-11-20T19:44:20;100348.63;;;1.87;100.00
16016;BME280;8112;53.592;10.184;2022-11-20T19:49:23;100348.56;;;1.88;100.00
16016;BME280;8112;53.592;10.184;2022-11-20T19:54:25;100343.22;;;1.93;100.00
16016;BME280;8112;53.592;10.184;2022-11-20T19:59:28;100346.69;;;1.93;100.00
16016;BME280;8112;53.592;10.184;2022-11-20T20:04:30;100333.50;;;1.69;100.00
16016;BME280;8112;53.592;10.184;2022-11-20T20:09:32;100321.72;;;1.58;100.00
16016;BME280;8112;53.592;10.184;2022-11-20T20:14:36;100311.13;;;1.34;100.00
16016;BME280;8112;53.592;10.184;2022-11-20T20:19:37;100318.44;;;1.19;100.00
16016;BME280;8112;53.592;10.184;2022-11-20T20:24:39;100315.19;;;1.11;100.00
16016;BME280;8112;53.592;10.184;2022-11-20T20:29:43;100307.63;;;1.02;100.00
16016;BME280;8112;53.592;10.184;2022-11-20T20:34:44;100304.41;;;0.93;100.00
16016;BME280;8112;53.592;10.184;2022-11-20T20:39:46;100303.38;;;0.64;100.00
16016;BME280;8112;53.592;10.184;2022-11-20T20:44:49;100309.22;;;0.36;100.00
16016;BME280;8112;53.592;10.184;2022-11-20T20:50:11;100294.72;;;0.29;100.00
16016;BME280;8112;53.592;10.184;2022-11-20T20:55:13;100293.94;;;0.25;100.00
16016;BME280;8112;53.592;10.184;2022-11-20T21:00:17;100290.03;;;0.07;100.00
16016;BME280;8112;53.592;10.184;2022-11-20T21:05:19;100283.50;;;-0.09;100.00
16016;BME280;8112;53.592;10.184;2022-11-20T21:10:21;100292.78;;;-0.01;100.00
16016;BME280;8112;53.592;10.184;2022-11-20T21:15:24;100290.19;;;0.01;100.00
16016;BME280;8112;53.592;10.184;2022-11-20T21:20:26;100285.66;;;0.09;100.00
16016;BME280;8112;53.592;10.184;2022-11-20T21:25:45;100283.25;;;0.02;100.00
16016;BME280;8112;53.592;10.184;2022-11-20T21:30:49;100278.94;;;0.02;100.00
16016;BME280;8112;53.592;10.184;2022-11-20T21:35:50;100277.22;;;0.01;100.00
16016;BME280;8112;53.592;10.184;2022-11-20T21:40:52;100276.44;;;-0.03;100.00
16016;BME280;8112;53.592;10.184;2022-11-20T21:46:03;100274.56;;;0.04;100.00
16016;BME280;8112;53.592;10.184;2022-11-20T21:51:08;100271.19;;;0.01;100.00
16016;BME280;8112;53.592;10.184;2022-11-20T21:56:11;100259.28;;;-0.07;100.00
16016;BME280;8112;53.592;10.184;2022-11-20T22:01:15;100251.06;;;-0.27;100.00
16016;BME280;8112;53.592;10.184;2022-11-20T22:06:18;100235.88;;;-0.43;100.00
16016;BME280;8112;53.592;10.184;2022-11-20T22:11:21;100252.91;;;-0.33;100.00
16016;BME280;8112;53.592;10.184;2022-11-20T22:16:24;100238.91;;;-0.24;100.00
16016;BME280;8112;53.592;10.184;2022-11-20T22:21:27;100240.00;;;-0.34;100.00
16016;BME280;8112;53.592;10.184;2022-11-20T22:26:33;100233.78;;;-0.66;100.00
16016;BME280;8112;53.592;10.184;2022-11-20T22:31:36;100235.91;;;-0.87;100.00
16016;BME280;8112;53.592;10.184;2022-11-20T22:36:39;100244.72;;;-0.97;100.00
16016;BME280;8112;53.592;10.184;2022-11-20T22:41:41;100240.50;;;-1.03;100.00
16016;BME280;8112;53.592;10.184;2022-11-20T22:46:44;100238.75;;;-1.01;100.00
16016;BME280;8112;53.592;10.184;2022-11-20T22:51:46;100236.66;;;-0.82;100.00
16016;BME280;8112;53.592;10.184;2022-11-20T22:56:47;100240.44;;;-0.54;100.00
16016;BME280;8112;53.592;10.184;2022-11-20T23:01:51;100242.63;;;-0.37;100.00
16016;BME280;8112;53.592;10.184;2022-11-20T23:06:53;100228.78;;;-0.35;100.00
16016;BME280;8112;53.592;10.184;2022-11-20T23:11:55;100227.16;;;-0.39;100.00
16016;BME280;8112;53.592;10.184;2022-11-20T23:16:58;100217.78;;;-0.45;100.00
16016;BME280;8112;53.592;10.184;2022-11-20T23:22:00;100216.09;;;-0.46;100.00
16016;BME280;8112;53.592;10.184;2022-11-20T23:27:02;100214.63;;;-0.59;100.00
16016;BME280;8112;53.592;10.184;2022-11-20T23:32:05;100204.16;;;-0.53;100.00
16016;BME280;8112;53.592;10.184;2022-11-20T23:37:07;100202.78;;;-0.69;100.00
16016;BME280;8112;53.592;10.184;2022-11-20T23:42:09;100202.97;;;-0.79;100.00
16016;BME280;8112;53.592;10.184;2022-11-20T23:47:12;100192.69;;;-0.82;100.00
16016;BME280;8112;53.592;10.184;2022-11-20T23:52:13;100194.22;;;-0.72;100.00
16016;BME280;8112;53.592;10.184;2022-11-20T23:57:15;100183.50;;;-0.56;100.00
